createdAt,value
2023-02-14T00:01:41.703Z,7.55
2023-02-14T00:04:47.240Z,7.07
2023-02-14T00:07:50.056Z,7.82
2023-02-14T00:10:53.109Z,6.90
2023-02-14T00:14:15.087Z,6.57
2023-02-14T00:17:18.239Z,6.75
2023-02-14T00:20:25.068Z,7.03
2023-02-14T00:23:28.111Z,6.80
2023-02-14T00:26:30.823Z,6.40
2023-02-14T00:29:34.465Z,6.70
2023-02-14T00:32:41.804Z,7.47
2023-02-14T00:35:44.912Z,6.70
2023-02-14T00:38:47.652Z,6.53
2023-02-14T00:41:50.733Z,6.93
2023-02-14T00:44:53.415Z,6.63
2023-02-14T00:47:56.377Z,7.07
2023-02-14T00:50:59.429Z,6.87
2023-02-14T00:54:03.481Z,7.62
2023-02-14T00:57:06.721Z,7.77
2023-02-14T01:00:13.752Z,7.03
2023-02-14T01:03:16.540Z,7.20
2023-02-14T01:06:19.632Z,7.75
2023-02-14T01:09:22.547Z,6.90
2023-02-14T01:12:25.627Z,8.37
2023-02-14T01:15:29.680Z,8.23
2023-02-14T01:18:33.105Z,7.47
2023-02-14T01:21:35.811Z,7.43
2023-02-14T01:24:38.740Z,7.18
2023-02-14T01:27:41.763Z,8.20
2023-02-14T01:30:44.815Z,8.33
2023-02-14T01:33:49.144Z,7.60
2023-02-14T01:36:52.197Z,7.65
2023-02-14T01:39:54.869Z,8.07
2023-02-14T01:42:57.966Z,8.27
2023-02-14T01:46:00.720Z,8.23
2023-02-14T01:49:26.379Z,7.82
2023-02-14T01:52:37.194Z,8.23
2023-02-14T01:55:44.581Z,7.28
2023-02-14T01:58:52.262Z,7.67
2023-02-14T02:01:56.007Z,7.33
2023-02-14T02:04:59.470Z,7.53
2023-02-14T02:08:02.674Z,8.02
2023-02-14T02:11:05.675Z,8.48
2023-02-14T02:14:20.487Z,7.20
2023-02-14T02:17:45.418Z,7.57
2023-02-14T02:21:06.939Z,8.63
2023-02-14T02:25:08.831Z,7.45
2023-02-14T02:28:17.777Z,8.15
2023-02-14T02:31:42.674Z,8.00
2023-02-14T02:35:17.937Z,7.97
2023-02-14T02:38:45.273Z,8.90
2023-02-14T02:42:13.977Z,7.70
2023-02-14T02:45:36.236Z,8.85
2023-02-14T02:48:47.927Z,8.87
2023-02-14T02:52:16.400Z,8.73
2023-02-14T02:55:58.031Z,9.13
2023-02-14T02:59:18.519Z,8.43
2023-02-14T03:02:54.805Z,8.40
2023-02-14T03:05:58.535Z,9.80
2023-02-14T03:09:19.613Z,13.70
2023-02-14T03:12:34.949Z,33.40
2023-02-14T03:16:09.885Z,23.85
2023-02-14T03:19:30.476Z,18.98
2023-02-14T03:22:51.701Z,15.93
2023-02-14T03:26:36.333Z,11.75
2023-02-14T03:30:02.790Z,13.07
2023-02-14T03:33:14.402Z,11.07
2023-02-14T03:36:31.668Z,10.13
2023-02-14T03:39:51.962Z,10.10
2023-02-14T03:43:19.185Z,10.85
2023-02-14T03:46:32.680Z,12.23
2023-02-14T03:49:40.925Z,18.65
2023-02-14T03:52:46.940Z,13.38
2023-02-14T03:56:14.597Z,11.10
2023-02-14T03:59:24.076Z,9.98
2023-02-14T04:02:32.688Z,9.25
2023-02-14T04:05:35.962Z,11.05
2023-02-14T04:08:38.801Z,10.03
2023-02-14T04:11:42.318Z,10.30
2023-02-14T04:14:44.944Z,10.52
2023-02-14T04:18:06.666Z,9.82
2023-02-14T04:21:09.354Z,12.18
2023-02-14T04:24:12.461Z,11.27
2023-02-14T04:27:15.226Z,10.52
2023-02-14T04:30:21.015Z,14.85
2023-02-14T04:33:23.827Z,9.73
2023-02-14T04:36:26.845Z,9.37
2023-02-14T04:39:29.761Z,9.65
2023-02-14T04:42:32.770Z,10.70
2023-02-14T04:45:35.756Z,9.45
2023-02-14T04:48:38.941Z,9.43
2023-02-14T04:51:41.731Z,10.63
2023-02-14T04:54:45.009Z,9.13
2023-02-14T04:57:47.828Z,13.73
2023-02-14T05:00:50.909Z,9.68
2023-02-14T05:03:53.634Z,10.02
2023-02-14T05:06:56.767Z,10.40
2023-02-14T05:09:59.502Z,8.70
2023-02-14T05:13:02.538Z,8.85
2023-02-14T05:16:05.506Z,9.57
2023-02-14T05:19:09.083Z,9.00
2023-02-14T05:22:11.931Z,9.33
2023-02-14T05:25:14.971Z,10.05
2023-02-14T05:28:19.613Z,9.88
2023-02-14T05:31:23.399Z,10.15
2023-02-14T05:34:26.139Z,9.73
2023-02-14T05:37:29.310Z,10.40
2023-02-14T05:40:32.082Z,11.40
2023-02-14T05:43:35.223Z,13.45
2023-02-14T05:46:37.846Z,12.57
2023-02-14T05:49:40.942Z,12.90
2023-02-14T05:52:43.711Z,12.87
2023-02-14T05:55:47.435Z,13.33
2023-02-14T05:58:50.179Z,12.90
2023-02-14T06:01:53.596Z,10.40
2023-02-14T06:04:56.872Z,12.37
2023-02-14T06:08:01.019Z,15.30
2023-02-14T06:11:04.230Z,13.43
2023-02-14T06:14:07.051Z,21.90
2023-02-14T06:17:10.452Z,16.90
2023-02-14T06:20:13.479Z,13.60
2023-02-14T06:23:16.471Z,11.97
2023-02-14T06:26:19.242Z,11.48
2023-02-14T06:29:23.040Z,18.65
2023-02-14T06:32:26.012Z,16.00
2023-02-14T06:35:29.149Z,17.52
2023-02-14T06:38:31.868Z,11.93
2023-02-14T06:41:34.957Z,11.40
2023-02-14T06:44:37.737Z,11.35
2023-02-14T06:47:41.010Z,10.32
2023-02-14T06:50:43.722Z,10.90
2023-02-14T06:53:46.809Z,10.40
2023-02-14T06:56:49.528Z,11.33
2023-02-14T06:59:52.669Z,11.25
2023-02-14T07:02:55.648Z,10.13
2023-02-14T07:05:58.775Z,11.07
2023-02-14T07:09:01.518Z,10.27
2023-02-14T07:12:05.275Z,10.27
2023-02-14T07:15:12.916Z,10.40
2023-02-14T07:18:16.092Z,9.60
2023-02-14T07:21:18.951Z,10.68
2023-02-14T07:24:22.128Z,7.90
2023-02-14T07:27:25.039Z,10.13
2023-02-14T07:30:28.514Z,10.38
2023-02-14T07:33:31.354Z,9.20
2023-02-14T07:36:34.469Z,10.63
2023-02-14T07:39:37.256Z,9.30
2023-02-14T07:42:40.217Z,10.07
2023-02-14T07:45:43.038Z,10.35
2023-02-14T07:48:46.201Z,9.63
2023-02-14T07:51:49.100Z,7.35
2023-02-14T07:54:52.169Z,8.60
2023-02-14T07:57:55.095Z,10.50
2023-02-14T08:00:58.818Z,10.23
2023-02-14T08:04:02.084Z,10.02
2023-02-14T08:07:05.049Z,8.93
2023-02-14T08:10:08.649Z,9.97
2023-02-14T08:13:11.265Z,9.73
2023-02-14T08:16:14.583Z,8.70
2023-02-14T08:19:17.300Z,7.90
2023-02-14T08:22:20.381Z,9.73
2023-02-14T08:25:23.220Z,10.03
2023-02-14T08:28:26.655Z,10.10
2023-02-14T08:31:36.281Z,8.45
2023-02-14T08:34:39.547Z,9.80
2023-02-14T08:37:42.241Z,8.75
2023-02-14T08:40:45.443Z,9.63
2023-02-14T08:43:48.331Z,10.38
2023-02-14T08:46:51.954Z,9.52
2023-02-14T08:49:54.695Z,9.18
2023-02-14T08:52:57.964Z,9.57
2023-02-14T08:56:08.752Z,9.87
2023-02-14T08:59:12.141Z,9.23
2023-02-14T09:02:16.506Z,8.68
2023-02-14T09:05:23.523Z,8.88
2023-02-14T09:08:26.318Z,10.20
2023-02-14T09:11:30.078Z,7.10
2023-02-14T09:14:37.387Z,8.43
2023-02-14T09:17:40.815Z,10.18
2023-02-14T09:20:44.986Z,7.78
2023-02-14T09:23:48.234Z,8.57
2023-02-14T09:26:50.984Z,8.77
2023-02-14T09:29:54.190Z,9.40
2023-02-14T09:32:57.148Z,9.48
2023-02-14T09:36:18.829Z,9.00
2023-02-14T09:39:21.790Z,7.50
2023-02-14T09:42:43.902Z,5.43
2023-02-14T09:45:53.491Z,7.40
2023-02-14T09:48:58.624Z,8.15
2023-02-14T09:52:04.509Z,5.70
2023-02-14T09:55:15.000Z,7.65
2023-02-14T09:58:23.680Z,7.43
2023-02-14T10:01:48.995Z,8.05
2023-02-14T10:05:06.563Z,7.82
2023-02-14T10:08:37.412Z,8.45
2023-02-14T10:11:43.527Z,8.25
2023-02-14T10:14:47.566Z,8.40
2023-02-14T10:18:27.716Z,8.50
2023-02-14T10:22:16.878Z,4.80
2023-02-14T10:25:45.426Z,7.97
2023-02-14T10:28:50.272Z,8.88
2023-02-14T10:31:59.042Z,7.20
2023-02-14T10:35:14.059Z,6.95
2023-02-14T10:38:30.900Z,6.45
2023-02-14T10:41:56.374Z,7.68
2023-02-14T10:45:14.820Z,7.20
2023-02-14T10:48:39.281Z,6.73
2023-02-14T10:52:22.033Z,8.18
2023-02-14T10:55:50.925Z,7.72
2023-02-14T10:58:56.967Z,8.20
2023-02-14T11:02:01.226Z,7.32
2023-02-14T11:05:06.266Z,4.93
2023-02-14T11:08:19.239Z,6.15
2023-02-14T11:12:00.824Z,6.10
2023-02-14T11:15:13.948Z,7.37
2023-02-14T11:18:33.203Z,6.40
2023-02-14T11:21:41.433Z,8.33
2023-02-14T11:24:46.208Z,7.20
2023-02-14T11:27:52.480Z,7.47
2023-02-14T11:30:56.082Z,6.78
2023-02-14T11:34:01.931Z,5.65
2023-02-14T11:37:27.979Z,6.50
2023-02-14T11:40:32.270Z,8.13
2023-02-14T11:43:40.869Z,6.60
2023-02-14T11:46:52.735Z,8.55
2023-02-14T11:50:23.542Z,8.05
2023-02-14T11:53:30.367Z,7.90
2023-02-14T11:56:56.539Z,7.45
2023-02-14T12:00:03.519Z,7.80
2023-02-14T12:03:19.646Z,8.23
2023-02-14T12:06:28.902Z,7.62
2023-02-14T12:09:32.229Z,7.70
2023-02-14T12:12:36.505Z,7.28
2023-02-14T12:15:50.136Z,6.72
2023-02-14T12:19:18.525Z,7.60
2023-02-14T12:22:28.359Z,8.25
2023-02-14T12:25:48.713Z,8.80
2023-02-14T12:29:33.298Z,7.37
2023-02-14T12:32:36.616Z,8.10
2023-02-14T12:35:57.691Z,9.05
2023-02-14T12:39:41.227Z,8.60
2023-02-14T12:43:08.545Z,9.67
2023-02-14T12:46:20.823Z,8.07
2023-02-14T12:49:23.442Z,6.97
2023-02-14T12:52:35.413Z,5.32
2023-02-14T12:55:59.990Z,6.87
2023-02-14T12:59:22.335Z,7.80
2023-02-14T13:02:46.646Z,7.40
2023-02-14T13:06:25.099Z,7.18
2023-02-14T13:09:52.020Z,7.97
2023-02-14T13:13:26.240Z,7.80
2023-02-14T13:16:49.059Z,4.57
2023-02-14T13:20:07.109Z,7.60
2023-02-14T13:23:19.219Z,7.85
2023-02-14T13:26:36.438Z,8.70
2023-02-14T13:30:04.853Z,7.75
2023-02-14T13:33:25.933Z,8.07
2023-02-14T13:36:29.759Z,8.27
2023-02-14T13:39:41.422Z,9.15
2023-02-14T13:42:50.208Z,9.40
2023-02-14T13:45:54.906Z,8.70
2023-02-14T13:49:17.546Z,8.27
2023-02-14T13:52:40.685Z,9.02
2023-02-14T13:55:47.417Z,8.85
2023-02-14T13:59:01.333Z,5.22
2023-02-14T14:02:30.163Z,8.43
2023-02-14T14:05:33.370Z,8.80
2023-02-14T14:08:48.627Z,7.75
2023-02-14T14:11:52.375Z,7.80
2023-02-14T14:15:07.234Z,8.43
2023-02-14T14:18:13.242Z,6.43
2023-02-14T14:21:26.797Z,5.60
2023-02-14T14:24:33.066Z,8.57
2023-02-14T14:27:44.610Z,8.50
2023-02-14T14:30:48.249Z,6.75
2023-02-14T14:34:01.534Z,8.70
2023-02-14T14:37:07.314Z,6.93
2023-02-14T14:40:23.217Z,9.05
2023-02-14T14:43:28.214Z,7.80
2023-02-14T14:46:31.692Z,9.00
2023-02-14T14:49:34.792Z,9.48
2023-02-14T14:52:43.977Z,9.23
2023-02-14T14:55:52.238Z,9.93
2023-02-14T14:58:55.460Z,10.13
2023-02-14T15:01:58.811Z,9.63
2023-02-14T15:05:24.596Z,9.75
2023-02-14T15:08:33.846Z,9.47
2023-02-14T15:11:55.406Z,7.03
2023-02-14T15:14:58.689Z,8.82
2023-02-14T15:18:06.286Z,12.07
2023-02-14T15:21:10.565Z,10.43
2023-02-14T15:24:16.483Z,9.67
2023-02-14T15:27:23.579Z,10.52
2023-02-14T15:30:34.183Z,11.60
2023-02-14T15:33:37.919Z,8.38
2023-02-14T15:36:52.313Z,10.80
2023-02-14T15:39:56.951Z,5.60
2023-02-14T15:43:15.337Z,6.55
2023-02-14T15:46:24.859Z,10.82
2023-02-14T15:49:37.778Z,11.82
2023-02-14T15:52:41.817Z,17.42
2023-02-14T15:55:45.911Z,13.93
2023-02-14T15:58:49.884Z,11.70
2023-02-14T16:01:58.196Z,12.30
2023-02-14T16:05:19.464Z,13.45
2023-02-14T16:08:35.466Z,11.82
2023-02-14T16:11:38.964Z,10.10
2023-02-14T16:14:45.906Z,8.38
2023-02-14T16:17:51.332Z,11.70
2023-02-14T16:20:54.900Z,13.07
2023-02-14T16:24:07.455Z,11.25
2023-02-14T16:27:58.607Z,13.52
2023-02-14T16:31:03.631Z,12.40
2023-02-14T16:34:06.976Z,13.27
2023-02-14T16:37:21.667Z,13.77
2023-02-14T16:40:29.670Z,14.02
2023-02-14T16:43:34.291Z,13.90
2023-02-14T16:46:37.586Z,13.65
2023-02-14T16:49:41.517Z,14.23
2023-02-14T16:52:48.753Z,18.13
2023-02-14T16:55:54.393Z,18.42
2023-02-14T16:59:00.353Z,18.80
2023-02-14T17:02:03.613Z,17.65
2023-02-14T17:05:07.364Z,19.30
2023-02-14T17:08:13.445Z,20.93
2023-02-14T17:11:16.665Z,21.50
2023-02-14T17:14:28.028Z,17.87
2023-02-14T17:17:31.567Z,16.20
2023-02-14T17:20:35.735Z,16.47
2023-02-14T17:23:39.483Z,15.70
2023-02-14T17:26:45.947Z,15.95
2023-02-14T17:29:52.133Z,15.60
2023-02-14T17:32:56.349Z,16.65
2023-02-14T17:36:12.191Z,17.10
2023-02-14T17:39:19.308Z,15.87
2023-02-14T17:42:22.916Z,16.62
2023-02-14T17:45:27.668Z,23.48
2023-02-14T17:48:31.211Z,26.25
2023-02-14T17:51:36.899Z,32.03
2023-02-14T17:54:40.507Z,33.00
2023-02-14T17:57:44.258Z,49.00
2023-02-14T18:00:47.724Z,37.83
2023-02-14T18:03:52.626Z,35.42
2023-02-14T18:06:56.297Z,40.43
2023-02-14T18:10:00.194Z,37.30
2023-02-14T18:13:03.784Z,40.72
2023-02-14T18:16:16.533Z,47.65
2023-02-14T18:19:20.514Z,40.60
2023-02-14T18:22:24.261Z,48.53
2023-02-14T18:25:27.958Z,38.53
2023-02-14T18:28:33.694Z,33.55
2023-02-14T18:31:40.928Z,36.08
2023-02-14T18:34:45.281Z,35.05
2023-02-14T18:37:49.569Z,34.57
2023-02-14T18:40:56.120Z,33.42
2023-02-14T18:43:59.948Z,32.75
2023-02-14T18:47:04.012Z,32.90
2023-02-14T18:50:08.846Z,32.67
2023-02-14T18:53:13.267Z,29.87
2023-02-14T18:56:20.831Z,31.65
2023-02-14T18:59:26.418Z,34.85
2023-02-14T19:02:30.437Z,35.08
2023-02-14T19:05:36.963Z,36.40
2023-02-14T19:08:43.709Z,72.30
2023-02-14T19:11:48.648Z,40.10
2023-02-14T19:14:55.931Z,43.90
2023-02-14T19:18:00.889Z,40.20
2023-02-14T19:21:15.123Z,45.77
2023-02-14T19:24:21.084Z,47.10
2023-02-14T19:27:25.036Z,45.65
2023-02-14T19:30:36.621Z,43.80
2023-02-14T19:33:42.061Z,38.65
2023-02-14T19:36:50.350Z,35.47
2023-02-14T19:39:55.545Z,36.55
2023-02-14T19:43:01.775Z,37.58
2023-02-14T19:46:07.112Z,35.65
2023-02-14T19:49:15.981Z,31.33
2023-02-14T19:52:26.445Z,30.43
2023-02-14T19:55:33.709Z,31.65
2023-02-14T19:58:39.190Z,30.85
2023-02-14T20:01:48.135Z,33.03
2023-02-14T20:05:00.721Z,33.75
2023-02-14T20:08:07.023Z,35.75
2023-02-14T20:11:32.485Z,34.50
2023-02-14T20:14:50.156Z,38.13
2023-02-14T20:17:58.324Z,36.25
2023-02-14T20:21:03.320Z,31.43
2023-02-14T20:24:08.884Z,35.10
2023-02-14T20:27:17.819Z,37.95
2023-02-14T20:30:24.763Z,31.73
2023-02-14T20:33:30.379Z,33.73
2023-02-14T20:36:35.599Z,30.50
2023-02-14T20:39:40.099Z,33.35
2023-02-14T20:42:44.671Z,33.03
2023-02-14T20:45:49.089Z,33.57
2023-02-14T20:48:56.150Z,31.70
2023-02-14T20:52:00.826Z,33.75
2023-02-14T20:55:06.587Z,33.20
2023-02-14T20:58:17.508Z,31.02
2023-02-14T21:01:25.306Z,29.63
2023-02-14T21:04:31.782Z,30.62
2023-02-14T21:07:36.751Z,29.58
2023-02-14T21:10:41.038Z,31.27
2023-02-14T21:13:46.558Z,31.42
2023-02-14T21:16:50.664Z,32.17
2023-02-14T21:19:54.835Z,30.75
2023-02-14T21:23:01.539Z,26.67
2023-02-14T21:26:06.883Z,28.10
2023-02-14T21:29:12.190Z,26.12
2023-02-14T21:32:16.387Z,26.85
2023-02-14T21:35:21.802Z,26.65
2023-02-14T21:38:25.989Z,25.05
2023-02-14T21:41:32.192Z,25.60
2023-02-14T21:44:54.850Z,25.60
2023-02-14T21:48:17.694Z,25.20
2023-02-14T21:51:22.842Z,25.50
2023-02-14T21:54:27.877Z,24.87
2023-02-14T21:57:32.055Z,23.10
2023-02-14T22:00:35.279Z,22.60
2023-02-14T22:03:38.606Z,23.65
2023-02-14T22:06:43.195Z,22.95
2023-02-14T22:09:46.530Z,22.80
2023-02-14T22:12:49.454Z,22.37
2023-02-14T22:15:53.139Z,21.12
2023-02-14T22:18:56.014Z,22.35
2023-02-14T22:21:59.183Z,20.83
2023-02-14T22:25:02.224Z,22.37
2023-02-14T22:28:05.428Z,22.62
2023-02-14T22:31:09.004Z,21.40
2023-02-14T22:34:14.284Z,21.65
2023-02-14T22:37:17.119Z,22.50
2023-02-14T22:40:20.174Z,21.20
2023-02-14T22:43:23.468Z,23.50
2023-02-14T22:46:28.624Z,21.20
2023-02-14T22:49:31.567Z,20.37
2023-02-14T22:52:35.187Z,19.45
2023-02-14T22:55:38.032Z,20.70
2023-02-14T22:58:42.034Z,20.88
2023-02-14T23:01:45.910Z,20.67
2023-02-14T23:04:49.323Z,19.12
2023-02-14T23:07:52.100Z,20.92
2023-02-14T23:10:55.037Z,20.10
2023-02-14T23:14:16.899Z,19.87
2023-02-14T23:17:38.618Z,19.67
2023-02-14T23:20:59.791Z,20.35
2023-02-14T23:24:02.936Z,18.77
2023-02-14T23:27:06.793Z,21.93
2023-02-14T23:30:13.131Z,22.73
2023-02-14T23:33:15.927Z,20.27
2023-02-14T23:36:19.001Z,19.40
2023-02-14T23:39:22.639Z,17.83
2023-02-14T23:42:25.744Z,18.35
2023-02-14T23:45:37.460Z,17.92
2023-02-14T23:48:40.701Z,17.73
2023-02-14T23:51:44.901Z,17.98
2023-02-14T23:54:47.977Z,16.27
2023-02-14T23:57:50.679Z,14.60
